createdAt,value
2023-03-03T00:00:43.089Z,0.45
2023-03-03T00:02:47.496Z,0.75
2023-03-03T00:04:50.296Z,2.02
2023-03-03T00:06:53.131Z,2.06
2023-03-03T00:08:55.983Z,1.84
2023-03-03T00:11:00.776Z,1.26
2023-03-03T00:13:03.911Z,1.74
2023-03-03T00:15:16.156Z,1.91
2023-03-03T00:17:24.157Z,1.76
2023-03-03T00:19:28.434Z,1.86
2023-03-03T00:21:32.823Z,1.89
2023-03-03T00:23:37.752Z,1.44
2023-03-03T00:25:44.185Z,1.69
2023-03-03T00:27:46.968Z,1.64
2023-03-03T00:29:54.315Z,1.71
2023-03-03T00:32:11.248Z,2.00
2023-03-03T00:34:26.409Z,1.67
2023-03-03T00:36:37.194Z,1.74
2023-03-03T00:38:40.079Z,1.68
2023-03-03T00:40:42.967Z,1.79
2023-03-03T00:42:50.043Z,1.41
2023-03-03T00:44:58.048Z,1.88
2023-03-03T00:47:13.769Z,1.59
2023-03-03T00:49:26.947Z,1.51
2023-03-03T00:51:33.143Z,1.66
2023-03-03T00:53:35.904Z,1.82
2023-03-03T00:55:39.633Z,1.73
2023-03-03T00:57:42.512Z,1.58
2023-03-03T00:59:46.985Z,1.61
2023-03-03T01:01:49.835Z,1.80
2023-03-03T01:03:52.608Z,1.90
2023-03-03T01:05:55.809Z,1.96
2023-03-03T01:08:00.448Z,2.04
2023-03-03T01:10:03.193Z,2.07
2023-03-03T01:12:06.696Z,2.08
2023-03-03T01:14:09.567Z,2.04
2023-03-03T01:16:12.853Z,1.81
2023-03-03T01:18:16.276Z,1.54
2023-03-03T01:20:19.848Z,1.69
2023-03-03T01:22:22.607Z,1.68
2023-03-03T01:24:27.531Z,1.49
2023-03-03T01:26:31.453Z,1.59
2023-03-03T01:28:35.244Z,1.59
2023-03-03T01:30:38.556Z,1.65
2023-03-03T01:32:41.360Z,1.69
2023-03-03T01:34:44.089Z,1.64
2023-03-03T01:36:46.814Z,1.64
2023-03-03T01:38:49.584Z,1.64
2023-03-03T01:40:57.295Z,1.44
2023-03-03T01:43:00.930Z,1.37
2023-03-03T01:45:20.746Z,1.50
2023-03-03T01:47:29.726Z,1.54
2023-03-03T01:49:35.985Z,1.56
2023-03-03T01:51:44.456Z,1.56
2023-03-03T01:53:51.181Z,1.56
2023-03-03T01:55:54.553Z,1.52
2023-03-03T01:58:02.892Z,1.45
2023-03-03T02:00:08.074Z,1.40
2023-03-03T02:02:16.655Z,1.37
2023-03-03T02:04:22.017Z,1.37
2023-03-03T02:06:28.043Z,0.94
2023-03-03T02:08:38.008Z,1.38
2023-03-03T02:10:41.634Z,1.21
2023-03-03T02:12:49.396Z,1.11
2023-03-03T02:14:53.517Z,1.09
2023-03-03T02:16:56.364Z,1.05
2023-03-03T02:18:59.167Z,0.95
2023-03-03T02:21:07.736Z,0.85
2023-03-03T02:23:17.904Z,1.06
2023-03-03T02:25:29.761Z,1.09
2023-03-03T02:27:34.740Z,0.38
2023-03-03T02:29:37.589Z,1.05
2023-03-03T02:31:43.175Z,0.86
2023-03-03T02:33:48.360Z,0.83
2023-03-03T02:35:52.127Z,0.76
2023-03-03T02:37:56.461Z,0.69
2023-03-03T02:39:59.296Z,0.70
2023-03-03T02:42:07.745Z,0.59
2023-03-03T02:44:18.919Z,0.52
2023-03-03T02:46:21.756Z,0.56
2023-03-03T02:48:24.562Z,0.62
2023-03-03T02:50:27.423Z,0.67
2023-03-03T02:52:30.239Z,0.64
2023-03-03T02:54:33.175Z,0.31
2023-03-03T02:56:38.874Z,-0.41
2023-03-03T02:58:41.928Z,0.60
2023-03-03T03:00:47.634Z,0.54
2023-03-03T03:02:54.089Z,0.53
2023-03-03T03:04:57.490Z,0.59
2023-03-03T03:07:01.239Z,0.61
2023-03-03T03:09:08.552Z,0.34
2023-03-03T03:11:11.464Z,0.65
2023-03-03T03:13:15.251Z,0.62
2023-03-03T03:15:20.654Z,0.58
2023-03-03T03:17:24.904Z,0.40
2023-03-03T03:19:29.255Z,0.64
2023-03-03T03:21:35.027Z,0.70
2023-03-03T03:23:39.177Z,0.74
2023-03-03T03:25:46.544Z,0.75
2023-03-03T03:27:55.332Z,-0.61
2023-03-03T03:29:58.140Z,0.79
2023-03-03T03:32:01.654Z,0.83
2023-03-03T03:34:05.813Z,0.89
2023-03-03T03:36:10.561Z,0.83
2023-03-03T03:38:13.801Z,1.00
2023-03-03T03:40:17.616Z,0.84
2023-03-03T03:42:20.775Z,1.06
2023-03-03T03:44:25.272Z,0.96
2023-03-03T03:46:28.325Z,1.17
2023-03-03T03:48:31.378Z,1.21
2023-03-03T03:50:36.954Z,1.26
2023-03-03T03:52:39.769Z,1.26
2023-03-03T03:54:43.141Z,1.16
2023-03-03T03:56:45.943Z,1.32
2023-03-03T03:58:48.782Z,1.36
2023-03-03T04:00:52.006Z,1.37
2023-03-03T04:02:55.298Z,1.37
2023-03-03T04:04:58.513Z,1.45
2023-03-03T04:07:02.642Z,1.48
2023-03-03T04:09:05.963Z,1.55
2023-03-03T04:11:09.515Z,1.58
2023-03-03T04:13:13.261Z,1.54
2023-03-03T04:15:16.366Z,1.46
2023-03-03T04:17:20.181Z,1.41
2023-03-03T04:19:23.035Z,1.42
2023-03-03T04:21:27.859Z,1.40
2023-03-03T04:23:34.456Z,1.35
2023-03-03T04:25:38.884Z,1.15
2023-03-03T04:27:48.670Z,1.08
2023-03-03T04:29:53.605Z,0.56
2023-03-03T04:31:56.484Z,0.56
2023-03-03T04:33:59.413Z,1.34
2023-03-03T04:36:03.043Z,1.53
2023-03-03T04:38:06.010Z,1.67
2023-03-03T04:40:12.920Z,1.46
2023-03-03T04:42:17.570Z,1.82
2023-03-03T04:44:20.336Z,1.56
2023-03-03T04:46:25.247Z,1.64
2023-03-03T04:48:28.529Z,2.01
2023-03-03T04:50:31.478Z,2.06
2023-03-03T04:52:34.250Z,2.11
2023-03-03T04:54:37.877Z,2.14
2023-03-03T04:56:42.044Z,2.13
2023-03-03T04:58:45.213Z,2.18
2023-03-03T05:00:48.605Z,2.06
2023-03-03T05:02:52.595Z,1.88
2023-03-03T05:04:55.977Z,2.14
2023-03-03T05:06:58.952Z,2.13
2023-03-03T05:09:02.160Z,1.98
2023-03-03T05:11:05.426Z,2.00
2023-03-03T05:13:10.112Z,2.05
2023-03-03T05:15:13.168Z,2.13
2023-03-03T05:17:15.883Z,2.18
2023-03-03T05:19:18.704Z,2.12
2023-03-03T05:21:21.399Z,1.80
2023-03-03T05:23:24.470Z,1.45
2023-03-03T05:25:27.200Z,1.74
2023-03-03T05:27:29.910Z,1.45
2023-03-03T05:29:33.967Z,1.88
2023-03-03T05:31:37.306Z,1.50
2023-03-03T05:33:40.084Z,2.03
2023-03-03T05:35:43.214Z,2.06
2023-03-03T05:37:47.717Z,2.14
2023-03-03T05:39:50.518Z,1.99
2023-03-03T05:41:53.248Z,1.90
2023-03-03T05:43:55.995Z,1.87
2023-03-03T05:46:00.895Z,1.99
2023-03-03T05:48:04.859Z,1.43
2023-03-03T05:50:08.141Z,2.10
2023-03-03T05:52:10.889Z,2.15
2023-03-03T05:54:13.669Z,2.18
2023-03-03T05:56:16.425Z,2.16
2023-03-03T05:58:19.197Z,2.19
2023-03-03T06:00:22.786Z,2.16
2023-03-03T06:02:26.912Z,2.06
2023-03-03T06:04:29.704Z,2.11
2023-03-03T06:06:32.580Z,2.18
2023-03-03T06:08:35.330Z,2.25
2023-03-03T06:10:38.070Z,2.05
2023-03-03T06:12:43.195Z,2.00
2023-03-03T06:14:45.912Z,2.08
2023-03-03T06:16:48.772Z,1.98
2023-03-03T06:18:52.939Z,1.89
2023-03-03T06:20:56.353Z,1.60
2023-03-03T06:22:59.111Z,1.72
2023-03-03T06:25:01.866Z,1.96
2023-03-03T06:27:04.740Z,2.05
2023-03-03T06:29:07.753Z,2.09
2023-03-03T06:31:10.532Z,2.19
2023-03-03T06:33:13.322Z,2.29
2023-03-03T06:35:18.375Z,2.37
2023-03-03T06:37:21.170Z,2.36
2023-03-03T06:39:23.930Z,2.28
2023-03-03T06:41:26.697Z,2.44
2023-03-03T06:43:29.474Z,2.49
2023-03-03T06:45:32.346Z,2.50
2023-03-03T06:47:35.215Z,1.75
2023-03-03T06:49:38.162Z,1.80
2023-03-03T06:51:43.893Z,1.98
2023-03-03T06:53:46.639Z,1.45
2023-03-03T06:55:49.457Z,0.80
2023-03-03T06:57:52.216Z,1.67
2023-03-03T06:59:58.215Z,1.84
2023-03-03T07:02:01.281Z,2.06
2023-03-03T07:04:12.581Z,2.04
2023-03-03T07:06:23.389Z,2.25
2023-03-03T07:08:32.541Z,2.18
2023-03-03T07:10:35.326Z,2.19
2023-03-03T07:12:38.099Z,1.73
2023-03-03T07:14:44.125Z,1.94
2023-03-03T07:16:47.204Z,2.21
2023-03-03T07:18:52.131Z,2.42
2023-03-03T07:20:54.937Z,2.55
2023-03-03T07:22:58.317Z,2.62
2023-03-03T07:25:07.565Z,2.52
2023-03-03T07:27:15.116Z,2.33
2023-03-03T07:29:25.227Z,2.09
2023-03-03T07:31:35.141Z,2.16
2023-03-03T07:33:45.199Z,1.90
2023-03-03T07:35:48.245Z,2.22
2023-03-03T07:37:51.042Z,2.55
2023-03-03T07:39:54.022Z,2.80
2023-03-03T07:42:08.678Z,2.98
2023-03-03T07:44:19.022Z,2.44
2023-03-03T07:46:29.827Z,3.08
2023-03-03T07:48:37.197Z,3.16
2023-03-03T07:50:41.342Z,3.25
2023-03-03T07:52:56.652Z,3.31
2023-03-03T07:55:03.693Z,2.75
2023-03-03T07:57:20.238Z,3.41
2023-03-03T07:59:25.468Z,3.39
2023-03-03T08:01:42.724Z,3.15
2023-03-03T08:03:46.868Z,3.05
2023-03-03T08:05:50.947Z,2.75
2023-03-03T08:07:54.090Z,2.93
2023-03-03T08:09:59.990Z,2.75
2023-03-03T08:12:24.995Z,3.31
2023-03-03T08:14:30.683Z,3.14
2023-03-03T08:16:39.005Z,3.67
2023-03-03T08:18:46.464Z,3.72
2023-03-03T08:20:51.097Z,3.64
2023-03-03T08:22:53.805Z,4.08
2023-03-03T08:24:56.562Z,3.96
2023-03-03T08:26:59.353Z,3.70
2023-03-03T08:29:03.435Z,4.29
2023-03-03T08:31:18.319Z,4.40
2023-03-03T08:33:25.259Z,4.43
2023-03-03T08:35:28.213Z,4.54
2023-03-03T08:37:31.010Z,4.57
2023-03-03T08:39:34.118Z,4.25
2023-03-03T08:41:36.931Z,4.22
2023-03-03T08:43:39.746Z,4.13
2023-03-03T08:45:44.098Z,4.26
2023-03-03T08:47:46.905Z,4.44
2023-03-03T08:49:49.637Z,4.50
2023-03-03T08:51:52.654Z,4.67
2023-03-03T08:53:55.500Z,4.85
2023-03-03T08:55:58.244Z,4.66
2023-03-03T08:58:01.112Z,4.77
2023-03-03T09:00:04.217Z,4.93
2023-03-03T09:02:08.801Z,4.95
2023-03-03T09:04:11.995Z,4.84
2023-03-03T09:06:14.802Z,4.75
2023-03-03T09:08:17.769Z,4.80
2023-03-03T09:10:27.585Z,5.00
2023-03-03T09:12:33.783Z,5.27
2023-03-03T09:14:36.504Z,5.20
2023-03-03T09:16:41.111Z,5.42
2023-03-03T09:18:45.243Z,5.38
2023-03-03T09:20:49.246Z,5.60
2023-03-03T09:22:52.311Z,5.28
2023-03-03T09:24:58.261Z,6.12
2023-03-03T09:27:01.053Z,6.25
2023-03-03T09:29:24.734Z,5.73
2023-03-03T09:31:37.534Z,6.61
2023-03-03T09:33:43.459Z,6.44
2023-03-03T09:35:48.725Z,6.85
2023-03-03T09:37:52.625Z,6.76
2023-03-03T09:39:57.404Z,5.52
2023-03-03T09:42:38.747Z,6.02
2023-03-03T09:45:07.344Z,5.83
2023-03-03T09:47:33.198Z,6.34
2023-03-03T09:49:40.963Z,5.98
2023-03-03T09:52:13.852Z,6.21
2023-03-03T09:54:26.692Z,6.51
2023-03-03T09:56:35.317Z,6.99
2023-03-03T09:58:53.034Z,7.24
2023-03-03T10:01:07.961Z,7.15
2023-03-03T10:03:40.433Z,6.99
2023-03-03T10:05:51.179Z,7.24
2023-03-03T10:08:12.593Z,7.57
2023-03-03T10:10:25.255Z,7.68
2023-03-03T10:12:33.168Z,7.89
2023-03-03T10:15:03.463Z,7.97
2023-03-03T10:17:25.467Z,8.12
2023-03-03T10:19:38.388Z,7.59
2023-03-03T10:21:50.268Z,7.90
2023-03-03T10:24:06.758Z,7.38
2023-03-03T10:26:29.020Z,7.73
2023-03-03T10:28:57.763Z,7.94
2023-03-03T10:31:17.360Z,7.85
2023-03-03T10:33:27.542Z,7.71
2023-03-03T10:36:06.982Z,7.70
2023-03-03T10:38:33.236Z,7.43
2023-03-03T10:40:45.068Z,8.09
2023-03-03T10:43:26.045Z,8.47
2023-03-03T10:45:52.545Z,8.22
2023-03-03T10:48:11.830Z,8.43
2023-03-03T10:50:21.845Z,8.65
2023-03-03T10:52:34.468Z,8.69
2023-03-03T10:54:58.080Z,7.98
2023-03-03T10:57:09.342Z,7.90
2023-03-03T10:59:27.943Z,8.07
2023-03-03T11:01:41.557Z,8.05
2023-03-03T11:04:13.943Z,8.26
2023-03-03T11:06:21.475Z,8.85
2023-03-03T11:08:31.022Z,8.51
2023-03-03T11:10:52.191Z,8.16
2023-03-03T11:13:10.732Z,7.66
2023-03-03T11:15:26.135Z,7.92
2023-03-03T11:17:42.369Z,8.71
2023-03-03T11:19:55.135Z,9.04
2023-03-03T11:22:08.305Z,9.13
2023-03-03T11:24:31.471Z,8.44
2023-03-03T11:26:46.008Z,9.04
2023-03-03T11:29:11.557Z,8.90
2023-03-03T11:31:22.404Z,8.70
2023-03-03T11:33:35.185Z,9.16
2023-03-03T11:35:45.995Z,8.78
2023-03-03T11:37:58.142Z,9.04
2023-03-03T11:40:10.873Z,9.79
2023-03-03T11:42:25.926Z,10.17
2023-03-03T11:44:33.069Z,9.47
2023-03-03T11:46:41.606Z,10.22
2023-03-03T11:48:51.838Z,10.18
2023-03-03T11:51:01.992Z,10.26
2023-03-03T11:53:23.122Z,10.40
2023-03-03T11:55:29.784Z,10.39
2023-03-03T11:57:37.892Z,10.60
2023-03-03T11:59:51.798Z,10.87
2023-03-03T12:01:57.665Z,10.71
2023-03-03T12:04:04.098Z,11.14
2023-03-03T12:06:18.551Z,10.73
2023-03-03T12:08:33.952Z,10.36
2023-03-03T12:10:44.253Z,10.44
2023-03-03T12:12:53.766Z,10.25
2023-03-03T12:15:10.230Z,9.98
2023-03-03T12:17:26.252Z,10.49
2023-03-03T12:19:35.333Z,10.42
2023-03-03T12:22:09.398Z,10.86
2023-03-03T12:24:35.023Z,10.87
2023-03-03T12:26:48.360Z,10.89
2023-03-03T12:28:55.879Z,10.99
2023-03-03T12:31:23.547Z,11.22
2023-03-03T12:33:39.713Z,10.42
2023-03-03T12:35:51.140Z,11.05
2023-03-03T12:38:01.194Z,11.51
2023-03-03T12:40:09.471Z,12.53
2023-03-03T12:42:22.334Z,12.79
2023-03-03T12:44:31.569Z,11.36
2023-03-03T12:46:46.479Z,13.05
2023-03-03T12:48:49.414Z,12.58
2023-03-03T12:51:04.510Z,13.25
2023-03-03T12:53:21.638Z,13.11
2023-03-03T12:55:37.159Z,13.73
2023-03-03T12:57:49.759Z,13.89
2023-03-03T13:00:16.793Z,14.28
2023-03-03T13:02:39.769Z,13.81
2023-03-03T13:04:50.210Z,14.90
2023-03-03T13:06:59.104Z,15.13
2023-03-03T13:09:18.839Z,14.55
2023-03-03T13:11:35.220Z,15.19
2023-03-03T13:13:46.304Z,15.52
2023-03-03T13:16:01.132Z,14.93
2023-03-03T13:18:41.218Z,14.92
2023-03-03T13:20:49.767Z,13.78
2023-03-03T13:22:58.137Z,14.27
2023-03-03T13:25:07.237Z,14.16
2023-03-03T13:27:13.993Z,13.96
2023-03-03T13:29:21.487Z,14.79
2023-03-03T13:31:29.324Z,13.84
2023-03-03T13:33:36.352Z,14.28
2023-03-03T13:35:45.422Z,13.16
2023-03-03T13:37:53.570Z,12.57
2023-03-03T13:40:00.189Z,12.95
2023-03-03T13:42:06.293Z,13.32
2023-03-03T13:44:16.274Z,13.50
2023-03-03T13:46:31.489Z,12.87
2023-03-03T13:48:48.304Z,13.03
2023-03-03T13:50:55.182Z,12.49
2023-03-03T13:53:18.711Z,12.85
2023-03-03T13:55:26.465Z,13.08
2023-03-03T13:57:46.595Z,12.91
2023-03-03T13:59:58.663Z,12.53
2023-03-03T14:02:21.690Z,12.84
2023-03-03T14:04:34.208Z,12.62
2023-03-03T14:06:38.802Z,13.03
2023-03-03T14:08:55.614Z,12.42
2023-03-03T14:11:09.250Z,12.01
2023-03-03T14:13:14.624Z,12.85
2023-03-03T14:15:26.059Z,12.97
2023-03-03T14:17:35.635Z,12.94
2023-03-03T14:19:44.204Z,12.03
2023-03-03T14:21:56.085Z,11.84
2023-03-03T14:24:05.836Z,12.11
2023-03-03T14:26:12.634Z,12.74
2023-03-03T14:28:19.254Z,11.98
2023-03-03T14:30:28.983Z,12.95
2023-03-03T14:32:44.855Z,14.25
2023-03-03T14:34:59.631Z,14.91
2023-03-03T14:37:22.465Z,14.50
2023-03-03T14:39:33.079Z,13.43
2023-03-03T14:41:40.228Z,13.60
2023-03-03T14:43:45.313Z,14.13
2023-03-03T14:45:48.190Z,13.15
2023-03-03T14:47:51.022Z,14.43
2023-03-03T14:49:59.906Z,14.40
2023-03-03T14:52:04.684Z,15.06
2023-03-03T14:54:12.237Z,16.52
2023-03-03T14:56:24.951Z,16.70
2023-03-03T14:58:35.805Z,16.04
2023-03-03T15:00:38.584Z,15.73
2023-03-03T15:02:43.603Z,15.05
2023-03-03T15:04:48.525Z,16.93
2023-03-03T15:06:54.246Z,17.57
2023-03-03T15:08:57.131Z,16.96
2023-03-03T15:11:15.036Z,16.00
2023-03-03T15:13:35.819Z,15.11
2023-03-03T15:15:52.451Z,14.91
2023-03-03T15:17:59.042Z,13.50
2023-03-03T15:20:14.652Z,13.79
2023-03-03T15:22:35.122Z,12.37
2023-03-03T15:24:43.851Z,12.84
2023-03-03T15:26:50.378Z,12.08
2023-03-03T15:29:03.107Z,11.90
2023-03-03T15:31:14.312Z,12.24
2023-03-03T15:33:27.489Z,12.42
2023-03-03T15:35:40.372Z,11.68
2023-03-03T15:37:50.695Z,12.00
2023-03-03T15:40:01.074Z,12.04
2023-03-03T15:42:07.024Z,11.95
2023-03-03T15:44:18.906Z,11.94
2023-03-03T15:46:33.027Z,12.17
2023-03-03T15:48:55.878Z,11.77
2023-03-03T15:51:10.231Z,11.63
2023-03-03T15:53:34.780Z,11.69
2023-03-03T15:55:53.994Z,12.22
2023-03-03T15:58:13.005Z,12.15
2023-03-03T16:00:34.661Z,12.33
2023-03-03T16:02:47.757Z,12.68
2023-03-03T16:05:00.325Z,12.43
2023-03-03T16:07:08.144Z,12.36
2023-03-03T16:09:24.443Z,11.91
2023-03-03T16:11:33.409Z,12.71
2023-03-03T16:13:52.653Z,12.67
2023-03-03T16:16:10.659Z,11.72
2023-03-03T16:18:23.156Z,11.90
2023-03-03T16:20:34.447Z,11.78
2023-03-03T16:23:06.092Z,10.61
2023-03-03T16:25:32.666Z,10.64
2023-03-03T16:27:41.920Z,10.32
2023-03-03T16:29:57.574Z,10.35
2023-03-03T16:32:06.591Z,10.27
2023-03-03T16:34:16.690Z,10.19
2023-03-03T16:36:28.833Z,9.99
2023-03-03T16:38:36.327Z,10.15
2023-03-03T16:40:46.814Z,9.48
2023-03-03T16:42:56.695Z,9.45
2023-03-03T16:45:23.472Z,9.33
2023-03-03T16:47:40.908Z,9.58
2023-03-03T16:49:53.701Z,8.80
2023-03-03T16:52:04.388Z,9.00
2023-03-03T16:54:13.651Z,9.01
2023-03-03T16:56:22.774Z,8.78
2023-03-03T16:58:36.947Z,8.88
2023-03-03T17:00:49.943Z,8.93
2023-03-03T17:03:24.836Z,8.74
2023-03-03T17:05:40.683Z,8.63
2023-03-03T17:07:45.803Z,8.25
2023-03-03T17:10:01.346Z,7.34
2023-03-03T17:12:22.306Z,7.67
2023-03-03T17:14:43.507Z,7.34
2023-03-03T17:16:57.689Z,6.90
2023-03-03T17:19:13.911Z,6.68
2023-03-03T17:21:26.222Z,6.59
2023-03-03T17:23:41.893Z,6.62
2023-03-03T17:25:51.066Z,6.75
2023-03-03T17:28:15.514Z,6.67
2023-03-03T17:30:23.571Z,6.37
2023-03-03T17:32:41.706Z,6.21
2023-03-03T17:34:57.606Z,6.30
2023-03-03T17:37:13.782Z,6.04
2023-03-03T17:39:43.696Z,5.98
2023-03-03T17:41:51.038Z,5.63
2023-03-03T17:44:03.126Z,6.01
2023-03-03T17:46:19.162Z,6.15
2023-03-03T17:48:59.715Z,5.87
2023-03-03T17:51:26.947Z,5.49
2023-03-03T17:53:44.960Z,5.92
2023-03-03T17:55:59.370Z,5.91
2023-03-03T17:58:16.520Z,5.99
2023-03-03T18:00:35.762Z,5.73
2023-03-03T18:02:54.329Z,5.48
2023-03-03T18:05:28.443Z,5.36
2023-03-03T18:07:43.149Z,5.31
2023-03-03T18:10:00.818Z,5.41
2023-03-03T18:12:15.102Z,4.90
2023-03-03T18:14:43.094Z,5.40
2023-03-03T18:17:16.745Z,5.40
2023-03-03T18:19:36.203Z,4.76
2023-03-03T18:21:44.827Z,5.13
2023-03-03T18:23:50.582Z,5.03
2023-03-03T18:25:57.184Z,4.98
2023-03-03T18:28:21.279Z,4.89
2023-03-03T18:30:29.033Z,4.79
2023-03-03T18:32:46.231Z,3.93
2023-03-03T18:34:52.532Z,3.97
2023-03-03T18:36:56.814Z,4.63
2023-03-03T18:39:02.946Z,4.65
2023-03-03T18:41:09.860Z,4.73
2023-03-03T18:43:57.182Z,4.94
2023-03-03T18:46:00.057Z,4.66
2023-03-03T18:48:10.257Z,4.74
2023-03-03T18:50:30.921Z,4.58
2023-03-03T18:52:36.957Z,4.65
2023-03-03T18:54:41.969Z,4.38
2023-03-03T18:56:47.422Z,4.57
2023-03-03T18:58:52.352Z,4.58
2023-03-03T19:00:59.654Z,3.79
2023-03-03T19:03:02.346Z,4.39
2023-03-03T19:05:23.150Z,4.44
2023-03-03T19:07:29.719Z,3.33
2023-03-03T19:09:49.388Z,4.20
2023-03-03T19:11:53.001Z,4.16
2023-03-03T19:14:18.865Z,4.11
2023-03-03T19:16:37.486Z,4.11
2023-03-03T19:19:00.673Z,4.15
2023-03-03T19:21:07.190Z,3.71
2023-03-03T19:23:15.629Z,4.04
2023-03-03T19:25:26.465Z,4.00
2023-03-03T19:27:35.242Z,3.98
2023-03-03T19:30:08.157Z,3.96
2023-03-03T19:32:28.363Z,3.76
2023-03-03T19:34:40.110Z,4.07
2023-03-03T19:36:56.365Z,4.01
2023-03-03T19:39:08.397Z,3.90
2023-03-03T19:41:38.417Z,3.38
2023-03-03T19:43:49.714Z,3.80
2023-03-03T19:46:23.388Z,3.76
2023-03-03T19:48:35.343Z,3.77
2023-03-03T19:50:46.957Z,3.65
2023-03-03T19:53:01.000Z,3.66
2023-03-03T19:55:23.090Z,3.59
2023-03-03T19:57:39.708Z,2.72
2023-03-03T19:59:49.525Z,3.36
2023-03-03T20:02:03.680Z,3.48
2023-03-03T20:04:33.172Z,3.59
2023-03-03T20:06:49.065Z,3.34
2023-03-03T20:08:59.710Z,3.54
2023-03-03T20:11:09.745Z,3.57
2023-03-03T20:13:28.562Z,3.54
2023-03-03T20:15:47.907Z,3.35
2023-03-03T20:17:59.031Z,3.33
2023-03-03T20:20:11.280Z,3.36
2023-03-03T20:22:24.073Z,3.53
2023-03-03T20:24:56.437Z,3.44
2023-03-03T20:27:04.252Z,3.31
2023-03-03T20:29:35.812Z,3.26
2023-03-03T20:31:48.312Z,3.34
2023-03-03T20:33:59.429Z,2.30
2023-03-03T20:36:11.674Z,3.24
2023-03-03T20:38:24.484Z,2.68
2023-03-03T20:40:36.281Z,3.46
2023-03-03T20:42:51.137Z,3.25
2023-03-03T20:45:10.817Z,3.42
2023-03-03T20:47:24.258Z,3.32
2023-03-03T20:49:46.708Z,3.26
2023-03-03T20:51:57.130Z,3.24
2023-03-03T20:54:11.807Z,3.32
2023-03-03T20:56:22.034Z,3.27
2023-03-03T20:58:32.442Z,3.12
2023-03-03T21:00:43.506Z,3.17
2023-03-03T21:02:53.487Z,3.25
2023-03-03T21:05:10.872Z,3.16
2023-03-03T21:07:25.397Z,3.23
2023-03-03T21:09:30.620Z,3.14
2023-03-03T21:11:44.243Z,3.13
2023-03-03T21:13:48.075Z,3.04
2023-03-03T21:15:56.024Z,3.04
2023-03-03T21:18:01.040Z,1.91
2023-03-03T21:20:23.891Z,2.87
2023-03-03T21:22:26.622Z,2.93
2023-03-03T21:24:47.436Z,2.98
2023-03-03T21:26:55.016Z,2.69
2023-03-03T21:29:03.425Z,2.98
2023-03-03T21:31:14.647Z,2.49
2023-03-03T21:33:45.751Z,2.94
2023-03-03T21:35:59.024Z,2.87
2023-03-03T21:38:01.865Z,2.77
2023-03-03T21:40:16.884Z,2.45
2023-03-03T21:42:40.941Z,2.73
2023-03-03T21:44:46.549Z,2.56
2023-03-03T21:46:49.321Z,2.54
2023-03-03T21:48:52.513Z,2.61
2023-03-03T21:50:55.347Z,3.13
2023-03-03T21:52:58.062Z,3.26
2023-03-03T21:55:00.867Z,3.30
2023-03-03T21:57:03.855Z,3.32
2023-03-03T21:59:08.181Z,3.31
2023-03-03T22:01:11.057Z,3.18
2023-03-03T22:03:15.302Z,3.14
2023-03-03T22:05:18.027Z,3.05
2023-03-03T22:07:20.812Z,2.80
2023-03-03T22:09:23.899Z,2.71
2023-03-03T22:11:26.670Z,2.63
2023-03-03T22:13:29.433Z,2.75
2023-03-03T22:15:34.181Z,2.57
2023-03-03T22:17:36.968Z,2.53
2023-03-03T22:19:39.821Z,2.51
2023-03-03T22:21:42.603Z,2.38
2023-03-03T22:23:45.469Z,1.61
2023-03-03T22:25:48.774Z,2.43
2023-03-03T22:27:51.489Z,2.10
2023-03-03T22:29:54.269Z,2.24
2023-03-03T22:31:58.392Z,2.01
2023-03-03T22:34:01.595Z,2.04
2023-03-03T22:36:04.659Z,0.95
2023-03-03T22:38:07.368Z,1.80
2023-03-03T22:40:11.554Z,1.67
2023-03-03T22:42:14.328Z,0.93
2023-03-03T22:44:17.593Z,1.58
2023-03-03T22:46:20.339Z,1.60
2023-03-03T22:48:25.336Z,1.60
2023-03-03T22:50:28.029Z,1.55
2023-03-03T22:52:30.858Z,1.58
2023-03-03T22:54:33.583Z,1.64
2023-03-03T22:56:36.326Z,1.61
2023-03-03T22:58:39.280Z,1.78
2023-03-03T23:00:43.256Z,1.66
2023-03-03T23:02:45.997Z,1.84
2023-03-03T23:04:51.419Z,1.93
2023-03-03T23:06:54.200Z,1.81
2023-03-03T23:08:56.905Z,1.31
2023-03-03T23:10:59.931Z,1.79
2023-03-03T23:13:02.713Z,1.83
2023-03-03T23:15:13.160Z,1.70
2023-03-03T23:17:15.909Z,1.65
2023-03-03T23:19:18.782Z,1.68
2023-03-03T23:21:22.876Z,1.69
2023-03-03T23:23:25.748Z,1.73
2023-03-03T23:25:29.640Z,1.16
2023-03-03T23:27:32.386Z,1.25
2023-03-03T23:29:35.143Z,1.01
2023-03-03T23:31:37.964Z,0.71
2023-03-03T23:33:40.676Z,0.70
2023-03-03T23:35:45.399Z,0.50
2023-03-03T23:37:53.510Z,0.15
2023-03-03T23:39:56.317Z,0.40
2023-03-03T23:41:58.989Z,0.57
2023-03-03T23:44:02.103Z,0.55
2023-03-03T23:46:05.030Z,0.56
2023-03-03T23:48:07.960Z,0.67
2023-03-03T23:50:12.496Z,0.41
2023-03-03T23:52:15.500Z,0.40
2023-03-03T23:54:19.635Z,0.82
2023-03-03T23:56:22.720Z,0.87
2023-03-03T23:58:25.557Z,1.32
